createdAt,value
2019-04-21T00:01:16.507Z,13.20
2019-04-21T00:03:52.210Z,13.30
2019-04-21T00:06:43.468Z,12.80
2019-04-21T00:09:19.131Z,17.83
2019-04-21T00:11:47.215Z,12.53
2019-04-21T00:14:11.458Z,13.00
2019-04-21T00:16:39.357Z,13.00
2019-04-21T00:19:17.341Z,12.57
2019-04-21T00:21:49.246Z,12.77
2019-04-21T00:24:28.862Z,11.67
2019-04-21T00:27:05.208Z,12.13
2019-04-21T00:29:51.799Z,16.20
2019-04-21T00:32:08.667Z,12.33
2019-04-21T00:34:25.624Z,11.83
2019-04-21T00:37:09.165Z,11.80
2019-04-21T00:42:22.755Z,12.27
2019-04-21T00:44:54.608Z,11.67
2019-04-21T00:47:31.735Z,12.33
2019-04-21T00:50:05.283Z,12.73
2019-04-21T00:53:00.194Z,11.70
2019-04-21T00:55:47.296Z,12.57
2019-04-21T00:58:19.053Z,17.90
2019-04-21T01:00:46.365Z,12.07
2019-04-21T01:03:20.558Z,12.20
2019-04-21T01:05:52.870Z,17.53
2019-04-21T01:08:21.717Z,10.93
2019-04-21T01:10:48.897Z,12.80
2019-04-21T01:13:27.744Z,17.47
2019-04-21T01:15:59.627Z,12.27
2019-04-21T01:18:33.184Z,12.40
2019-04-21T01:20:42.446Z,12.27
2019-04-21T01:23:14.702Z,12.27
2019-04-21T01:26:00.620Z,12.77
2019-04-21T01:28:38.209Z,12.73
2019-04-21T01:31:10.917Z,12.60
2019-04-21T01:33:44.907Z,13.03
2019-04-21T01:36:13.983Z,12.57
2019-04-21T01:38:48.643Z,12.87
2019-04-21T01:41:28.855Z,18.07
2019-04-21T01:43:53.463Z,12.63
2019-04-21T01:46:20.690Z,12.50
2019-04-21T01:48:49.479Z,12.90
2019-04-21T01:51:27.866Z,13.30
2019-04-21T01:54:37.665Z,13.30
2019-04-21T01:57:17.355Z,12.83
2019-04-21T01:59:48.861Z,13.33
2019-04-21T02:02:22.929Z,13.23
2019-04-21T02:05:08.817Z,18.50
2019-04-21T02:07:30.875Z,13.30
2019-04-21T02:10:05.090Z,13.43
2019-04-21T02:12:38.086Z,13.43
2019-04-21T02:15:12.620Z,14.13
2019-04-21T02:17:43.446Z,13.33
2019-04-21T02:20:02.636Z,13.70
2019-04-21T02:23:00.453Z,13.20
2019-04-21T02:25:20.158Z,13.90
2019-04-21T02:27:53.946Z,13.93
2019-04-21T02:30:35.626Z,14.00
2019-04-21T02:33:08.747Z,19.87
2019-04-21T02:35:42.859Z,14.33
2019-04-21T02:38:12.167Z,14.67
2019-04-21T02:45:47.052Z,14.90
2019-04-21T02:48:17.248Z,14.70
2019-04-21T02:53:37.448Z,14.50
2019-04-21T02:55:51.185Z,15.83
2019-04-21T02:58:34.404Z,15.17
2019-04-21T03:01:38.224Z,20.17
2019-04-21T03:04:24.228Z,15.57
2019-04-21T03:10:06.455Z,20.73
2019-04-21T03:12:20.588Z,14.80
2019-04-21T03:17:46.187Z,20.90
2019-04-21T03:22:24.644Z,17.43
2019-04-21T03:30:10.199Z,18.40
2019-04-21T03:40:16.753Z,17.40
2019-04-21T03:42:54.271Z,17.70
2019-04-21T03:47:53.251Z,16.53
2019-04-21T03:50:27.373Z,24.40
2019-04-21T03:53:03.449Z,17.80
2019-04-21T04:06:39.069Z,19.57
2019-04-21T04:14:37.094Z,21.73
2019-04-21T04:19:18.453Z,20.80
2019-04-21T04:21:56.437Z,19.27
2019-04-21T04:24:39.522Z,18.73
2019-04-21T04:31:55.345Z,17.83
2019-04-21T04:34:42.056Z,19.20
2019-04-21T04:40:00.487Z,19.87
2019-04-21T04:42:45.869Z,18.43
2019-04-21T04:45:17.651Z,19.57
2019-04-21T04:47:44.915Z,18.47
2019-04-21T04:50:15.420Z,20.27
2019-04-21T04:55:22.123Z,27.83
2019-04-21T04:57:59.490Z,19.23
2019-04-21T05:05:28.275Z,25.87
2019-04-21T05:08:19.390Z,18.77
2019-04-21T05:10:54.548Z,20.33
2019-04-21T05:13:06.202Z,19.93
2019-04-21T05:15:37.718Z,18.60
2019-04-21T05:18:04.628Z,19.10
2019-04-21T05:20:41.868Z,18.47
2019-04-21T05:23:06.804Z,19.13
2019-04-21T05:25:35.141Z,20.20
2019-04-21T05:28:06.374Z,18.97
2019-04-21T05:30:56.426Z,19.10
2019-04-21T05:33:47.525Z,19.13
2019-04-21T05:36:33.971Z,18.60
2019-04-21T05:39:12.031Z,18.83
2019-04-21T05:41:34.832Z,20.17
2019-04-21T05:44:29.194Z,17.80
2019-04-21T05:47:07.850Z,18.43
2019-04-21T05:49:34.842Z,17.73
2019-04-21T05:52:03.808Z,17.30
2019-04-21T05:54:52.759Z,18.83
2019-04-21T05:57:10.413Z,17.73
2019-04-21T05:59:51.534Z,18.13
2019-04-21T06:02:24.335Z,17.97
2019-04-21T06:07:28.506Z,17.53
2019-04-21T06:09:59.697Z,17.47
2019-04-21T06:12:35.968Z,17.47
2019-04-21T06:15:07.003Z,18.90
2019-04-21T06:17:58.218Z,17.73
2019-04-21T06:20:12.578Z,17.57
2019-04-21T06:22:48.972Z,18.00
2019-04-21T06:27:49.253Z,17.50
2019-04-21T06:30:22.390Z,16.93
2019-04-21T06:32:52.654Z,16.90
2019-04-21T06:35:58.798Z,16.87
2019-04-21T06:38:15.259Z,17.33
2019-04-21T06:40:53.538Z,17.50
2019-04-21T06:43:33.227Z,17.47
2019-04-21T06:46:06.527Z,16.63
2019-04-21T06:48:37.511Z,17.20
2019-04-21T06:51:06.164Z,17.80
2019-04-21T06:53:44.614Z,18.53
2019-04-21T06:56:15.566Z,16.47
2019-04-21T06:58:42.962Z,16.03
2019-04-21T07:01:18.936Z,16.57
2019-04-21T07:03:48.603Z,15.67
2019-04-21T07:06:26.104Z,16.87
2019-04-21T07:09:04.361Z,16.20
2019-04-21T07:11:18.765Z,16.03
2019-04-21T07:14:16.060Z,15.80
2019-04-21T07:16:31.973Z,16.10
2019-04-21T07:19:09.820Z,16.27
2019-04-21T07:21:34.403Z,16.03
2019-04-21T07:24:05.603Z,16.23
2019-04-21T07:26:36.391Z,16.33
2019-04-21T07:29:14.243Z,15.33
2019-04-21T07:34:23.927Z,15.60
2019-04-21T07:36:59.637Z,15.00
2019-04-21T07:39:18.398Z,15.63
2019-04-21T07:41:48.406Z,14.40
2019-04-21T07:44:18.123Z,15.10
2019-04-21T07:46:48.185Z,14.90
2019-04-21T07:49:46.444Z,16.00
2019-04-21T07:52:22.257Z,15.27
2019-04-21T07:55:05.635Z,15.50
2019-04-21T07:57:25.492Z,14.70
2019-04-21T08:07:50.710Z,14.83
2019-04-21T08:10:09.099Z,12.90
2019-04-21T08:12:36.368Z,13.37
2019-04-21T08:15:23.633Z,13.33
2019-04-21T08:17:47.188Z,13.50
2019-04-21T08:20:18.787Z,12.60
2019-04-21T08:22:51.828Z,12.03
2019-04-21T08:25:22.281Z,12.37
2019-04-21T08:30:36.224Z,11.37
2019-04-21T08:33:17.525Z,11.40
2019-04-21T08:38:08.197Z,11.23
2019-04-21T08:40:40.907Z,11.73
2019-04-21T08:43:21.813Z,11.83
2019-04-21T08:45:57.299Z,11.27
2019-04-21T08:48:22.514Z,10.20
2019-04-21T08:51:06.242Z,11.40
2019-04-21T08:53:25.547Z,11.10
2019-04-21T08:59:31.821Z,11.87
2019-04-21T09:02:08.949Z,9.93
2019-04-21T09:04:41.024Z,8.77
2019-04-21T09:09:52.535Z,6.50
2019-04-21T09:12:26.159Z,8.93
2019-04-21T09:14:55.296Z,7.13
2019-04-21T09:17:26.261Z,7.50
2019-04-21T09:20:10.699Z,7.20
2019-04-21T09:22:37.714Z,6.80
2019-04-21T09:25:01.492Z,7.13
2019-04-21T09:27:36.780Z,6.40
2019-04-21T09:29:57.605Z,5.83
2019-04-21T09:32:27.565Z,6.10
2019-04-21T09:34:58.094Z,5.90
2019-04-21T09:37:40.927Z,5.90
2019-04-21T09:40:03.033Z,7.57
2019-04-21T09:42:41.017Z,6.07
2019-04-21T09:45:08.555Z,5.93
2019-04-21T09:47:47.041Z,5.50
2019-04-21T09:50:11.652Z,5.50
2019-04-21T09:53:05.428Z,5.10
2019-04-21T09:55:53.662Z,5.30
2019-04-21T09:58:23.991Z,5.00
2019-04-21T10:00:57.338Z,5.60
2019-04-21T10:03:21.228Z,4.73
2019-04-21T10:05:54.465Z,5.37
2019-04-21T10:08:25.088Z,5.20
2019-04-21T10:10:56.884Z,5.30
2019-04-21T10:13:27.478Z,4.87
2019-04-21T10:16:15.561Z,5.47
2019-04-21T10:18:46.129Z,5.20
2019-04-21T10:21:17.420Z,5.03
2019-04-21T10:23:50.058Z,7.10
2019-04-21T10:26:22.130Z,6.70
2019-04-21T10:28:53.329Z,5.43
2019-04-21T10:31:24.918Z,5.00
2019-04-21T10:33:55.775Z,5.20
2019-04-21T10:36:26.879Z,5.03
2019-04-21T10:38:58.982Z,4.77
2019-04-21T10:41:29.832Z,6.03
2019-04-21T10:44:00.988Z,5.07
2019-04-21T10:46:32.994Z,4.77
2019-04-21T10:49:04.423Z,4.60
2019-04-21T10:51:35.191Z,4.57
2019-04-21T10:54:06.256Z,4.10
2019-04-21T10:56:41.745Z,4.70
2019-04-21T10:59:10.140Z,6.03
2019-04-21T11:01:41.466Z,5.50
2019-04-21T11:04:23.563Z,5.63
2019-04-21T11:06:52.672Z,5.43
2019-04-21T11:09:26.346Z,5.40
2019-04-21T11:11:57.853Z,5.20
2019-04-21T11:14:29.360Z,5.70
2019-04-21T11:17:00.537Z,5.07
2019-04-21T11:19:32.714Z,4.93
2019-04-21T11:22:05.038Z,5.27
2019-04-21T11:24:36.760Z,5.67
2019-04-21T11:27:08.720Z,4.73
2019-04-21T11:29:39.397Z,4.80
2019-04-21T11:32:09.843Z,4.90
2019-04-21T11:34:41.030Z,4.60
2019-04-21T11:37:14.352Z,4.73
2019-04-21T11:39:52.188Z,4.53
2019-04-21T11:42:25.747Z,5.10
2019-04-21T11:44:57.311Z,4.10
2019-04-21T11:47:32.810Z,4.30
2019-04-21T11:50:03.416Z,4.07
2019-04-21T11:52:34.735Z,4.10
2019-04-21T11:55:06.738Z,4.37
2019-04-21T11:57:44.731Z,4.33
2019-04-21T12:00:13.681Z,4.30
2019-04-21T12:02:45.621Z,4.20
2019-04-21T12:05:17.323Z,4.00
2019-04-21T12:07:49.258Z,4.40
2019-04-21T12:10:23.670Z,4.10
2019-04-21T12:12:55.164Z,3.80
2019-04-21T12:15:27.016Z,4.00
2019-04-21T12:18:01.934Z,4.07
2019-04-21T12:20:33.436Z,4.03
2019-04-21T12:23:04.688Z,4.13
2019-04-21T12:25:39.004Z,4.13
2019-04-21T12:28:10.043Z,3.80
2019-04-21T12:30:42.394Z,3.77
2019-04-21T12:33:16.169Z,3.70
2019-04-21T12:35:46.584Z,3.90
2019-04-21T12:38:28.404Z,4.33
2019-04-21T12:40:50.661Z,4.13
2019-04-21T12:43:21.478Z,3.70
2019-04-21T12:45:52.019Z,3.83
2019-04-21T12:48:26.212Z,4.20
2019-04-21T12:50:57.536Z,4.10
2019-04-21T12:53:29.591Z,3.80
2019-04-21T12:56:02.012Z,3.87
2019-04-21T12:58:33.223Z,3.50
2019-04-21T13:01:04.955Z,3.30
2019-04-21T13:03:35.793Z,3.57
2019-04-21T13:06:07.592Z,3.10
2019-04-21T13:08:45.656Z,4.43
2019-04-21T13:11:11.525Z,3.53
2019-04-21T13:13:44.014Z,3.30
2019-04-21T13:16:17.297Z,3.30
2019-04-21T13:18:49.111Z,3.40
2019-04-21T13:21:20.191Z,3.20
2019-04-21T13:23:50.785Z,3.60
2019-04-21T13:26:29.599Z,3.30
2019-04-21T13:28:54.224Z,3.10
2019-04-21T13:31:24.685Z,3.30
2019-04-21T13:33:55.740Z,5.00
2019-04-21T13:36:27.639Z,3.77
2019-04-21T13:39:52.274Z,3.30
2019-04-21T13:42:06.340Z,3.30
2019-04-21T13:44:32.932Z,3.30
2019-04-21T13:47:04.904Z,3.20
2019-04-21T13:49:36.857Z,3.53
2019-04-21T13:52:08.831Z,3.83
2019-04-21T13:54:43.258Z,3.37
2019-04-21T13:57:14.429Z,3.50
2019-04-21T13:59:46.346Z,4.00
2019-04-21T14:02:18.517Z,3.43
2019-04-21T14:04:49.662Z,3.30
2019-04-21T14:07:20.512Z,3.43
2019-04-21T14:09:57.900Z,3.00
2019-04-21T14:12:23.641Z,3.43
2019-04-21T14:14:54.469Z,3.57
2019-04-21T14:17:25.215Z,2.87
2019-04-21T14:19:55.695Z,3.57
2019-04-21T14:22:26.815Z,3.27
2019-04-21T14:24:57.272Z,3.20
2019-04-21T14:27:28.192Z,3.43
2019-04-21T14:30:02.912Z,3.40
2019-04-21T14:32:33.749Z,3.10
2019-04-21T14:35:06.943Z,2.87
2019-04-21T14:37:38.354Z,3.33
2019-04-21T14:40:14.626Z,3.27
2019-04-21T14:43:05.929Z,3.70
2019-04-21T14:45:50.581Z,3.67
2019-04-21T14:48:39.456Z,3.53
2019-04-21T14:51:20.822Z,4.37
2019-04-21T14:54:22.593Z,3.50
2019-04-21T14:56:55.954Z,3.37
2019-04-21T14:59:26.945Z,3.83
2019-04-21T15:01:58.120Z,2.87
2019-04-21T15:04:29.023Z,3.63
2019-04-21T15:07:01.590Z,3.70
2019-04-21T15:09:37.689Z,3.67
2019-04-21T15:12:09.676Z,4.27
2019-04-21T15:14:42.156Z,46.23
2019-04-21T15:17:19.538Z,3.50
2019-04-21T15:19:58.237Z,3.23
2019-04-21T15:22:26.080Z,3.07
2019-04-21T15:24:58.347Z,3.30
2019-04-21T15:27:29.059Z,2.97
2019-04-21T15:30:00.552Z,3.20
2019-04-21T15:32:32.722Z,3.10
2019-04-21T15:35:06.925Z,3.70
2019-04-21T15:37:37.934Z,3.27
2019-04-21T15:40:18.136Z,3.27
2019-04-21T15:42:42.207Z,3.10
2019-04-21T15:45:14.605Z,9.00
2019-04-21T15:47:46.127Z,3.17
2019-04-21T15:50:19.507Z,5.07
2019-04-21T15:52:51.653Z,4.73
2019-04-21T15:55:41.290Z,3.40
2019-04-21T15:58:18.793Z,3.30
2019-04-21T16:01:04.789Z,8.33
2019-04-21T16:03:36.521Z,7.73
2019-04-21T16:06:07.626Z,3.50
2019-04-21T16:08:39.515Z,3.23
2019-04-21T16:11:13.546Z,3.20
2019-04-21T16:13:45.722Z,3.17
2019-04-21T16:16:20.264Z,3.20
2019-04-21T16:18:52.093Z,3.57
2019-04-21T16:21:26.222Z,3.70
2019-04-21T16:24:02.678Z,3.63
2019-04-21T16:26:34.856Z,4.30
2019-04-21T16:29:07.010Z,4.27
2019-04-21T16:31:38.336Z,4.43
2019-04-21T16:34:09.291Z,3.43
2019-04-21T16:36:41.231Z,3.20
2019-04-21T16:39:11.789Z,3.50
2019-04-21T16:41:42.675Z,4.00
2019-04-21T16:44:13.459Z,3.90
2019-04-21T16:46:45.428Z,3.40
2019-04-21T16:49:16.044Z,3.50
2019-04-21T16:51:48.283Z,3.50
2019-04-21T16:54:28.106Z,3.50
2019-04-21T16:57:23.861Z,4.07
2019-04-21T17:00:02.372Z,3.83
2019-04-21T17:02:34.260Z,3.73
2019-04-21T17:05:06.718Z,3.73
2019-04-21T17:07:38.806Z,3.80
2019-04-21T17:10:10.628Z,3.43
2019-04-21T17:12:43.217Z,3.80
2019-04-21T17:15:32.500Z,3.73
2019-04-21T17:18:05.955Z,4.47
2019-04-21T17:20:34.241Z,4.40
2019-04-21T17:22:53.520Z,4.20
2019-04-21T17:25:25.926Z,4.20
2019-04-21T17:27:56.861Z,4.73
2019-04-21T17:30:30.586Z,4.57
2019-04-21T17:33:05.707Z,4.30
2019-04-21T17:35:36.338Z,4.37
2019-04-21T17:38:07.913Z,4.50
2019-04-21T17:40:42.409Z,4.57
2019-04-21T17:43:17.531Z,4.73
2019-04-21T17:45:46.831Z,5.23
2019-04-21T17:48:19.374Z,4.40
2019-04-21T17:51:17.460Z,5.20
2019-04-21T17:53:58.963Z,5.07
2019-04-21T17:56:59.594Z,5.80
2019-04-21T17:59:28.138Z,5.07
2019-04-21T18:02:05.127Z,4.70
2019-04-21T18:04:49.189Z,5.10
2019-04-21T18:07:31.252Z,6.63
2019-04-21T18:10:04.730Z,5.57
2019-04-21T18:12:36.088Z,7.70
2019-04-21T18:15:18.062Z,6.27
2019-04-21T18:17:34.225Z,6.60
2019-04-21T18:20:06.079Z,6.50
2019-04-21T18:22:58.566Z,6.63
2019-04-21T18:25:42.305Z,6.00
2019-04-21T18:28:02.906Z,6.27
2019-04-21T18:31:00.624Z,7.00
2019-04-21T18:33:36.616Z,6.93
2019-04-21T18:36:34.844Z,5.87
2019-04-21T18:39:38.132Z,6.40
2019-04-21T18:42:35.336Z,5.87
2019-04-21T18:48:24.560Z,7.13
2019-04-21T18:51:13.542Z,7.67
2019-04-21T18:54:09.082Z,7.43
2019-04-21T18:56:23.219Z,7.70
2019-04-21T18:58:56.447Z,7.57
2019-04-21T19:01:33.480Z,6.90
2019-04-21T19:04:06.315Z,6.70
2019-04-21T19:06:51.707Z,6.73
2019-04-21T19:09:35.903Z,6.73
2019-04-21T19:12:08.332Z,7.27
2019-04-21T19:19:54.351Z,7.50
2019-04-21T19:22:28.189Z,7.30
2019-04-21T19:25:05.434Z,7.20
2019-04-21T19:27:50.209Z,6.97
2019-04-21T19:30:33.605Z,7.10
2019-04-21T19:32:54.497Z,6.30
2019-04-21T19:35:13.054Z,6.10
2019-04-21T19:37:55.148Z,6.43
2019-04-21T19:40:37.624Z,6.33
2019-04-21T19:43:00.914Z,7.80
2019-04-21T19:45:36.788Z,6.80
2019-04-21T19:48:15.317Z,8.20
2019-04-21T19:50:46.668Z,8.20
2019-04-21T19:53:25.485Z,8.33
2019-04-21T19:55:42.807Z,7.50
2019-04-21T19:58:14.803Z,7.33
2019-04-21T20:00:47.394Z,7.17
2019-04-21T20:03:18.766Z,6.80
2019-04-21T20:05:59.320Z,7.17
2019-04-21T20:08:36.618Z,6.93
2019-04-21T20:11:19.333Z,6.97
2019-04-21T20:14:35.333Z,6.90
2019-04-21T20:16:33.723Z,7.13
2019-04-21T20:18:45.630Z,8.20
2019-04-21T20:21:17.169Z,7.67
2019-04-21T20:23:47.715Z,7.57
2019-04-21T20:26:39.093Z,7.67
2019-04-21T20:29:20.724Z,7.53
2019-04-21T20:31:54.344Z,7.30
2019-04-21T20:34:38.603Z,6.73
2019-04-21T20:37:09.270Z,6.13
2019-04-21T20:39:41.748Z,6.93
2019-04-21T20:42:20.872Z,6.20
2019-04-21T20:45:16.661Z,6.17
2019-04-21T20:47:25.593Z,6.20
2019-04-21T20:50:03.357Z,6.27
2019-04-21T20:52:48.027Z,6.83
2019-04-21T20:55:11.997Z,6.33
2019-04-21T20:57:48.984Z,6.63
2019-04-21T21:00:33.575Z,6.60
2019-04-21T21:03:07.110Z,7.67
2019-04-21T21:05:30.497Z,6.83
2019-04-21T21:08:13.688Z,7.50
2019-04-21T21:10:38.553Z,7.77
2019-04-21T21:13:22.944Z,7.53
2019-04-21T21:16:03.810Z,7.67
2019-04-21T21:18:52.027Z,7.37
2019-04-21T21:21:00.348Z,7.60
2019-04-21T21:23:36.272Z,7.60
2019-04-21T21:26:10.022Z,7.70
2019-04-21T21:28:36.937Z,7.23
2019-04-21T21:31:11.483Z,7.73
2019-04-21T21:33:52.497Z,7.67
2019-04-21T21:36:31.548Z,8.13
2019-04-21T21:38:53.132Z,8.10
2019-04-21T21:41:13.746Z,8.47
2019-04-21T21:43:37.805Z,10.20
2019-04-21T21:46:25.006Z,9.73
2019-04-21T21:48:53.846Z,8.97
2019-04-21T21:51:29.323Z,9.40
2019-04-21T21:53:48.799Z,9.10
2019-04-21T21:56:20.603Z,9.00
2019-04-21T21:58:53.828Z,9.73
2019-04-21T22:01:37.707Z,11.83
2019-04-21T22:04:10.424Z,9.80
2019-04-21T22:06:47.135Z,8.53
2019-04-21T22:09:14.613Z,8.53
2019-04-21T22:11:48.650Z,9.00
2019-04-21T22:14:34.010Z,9.30
2019-04-21T22:17:16.474Z,8.70
2019-04-21T22:19:51.020Z,8.37
2019-04-21T22:22:21.407Z,8.07
2019-04-21T22:24:51.069Z,7.70
2019-04-21T22:27:07.508Z,7.10
2019-04-21T22:29:46.052Z,6.63
2019-04-21T22:32:22.905Z,6.57
2019-04-21T22:34:56.467Z,6.90
2019-04-21T22:37:40.021Z,7.77
2019-04-21T22:40:10.921Z,7.30
2019-04-21T22:42:34.905Z,6.53
2019-04-21T22:45:07.302Z,7.70
2019-04-21T22:47:42.656Z,7.13
2019-04-21T22:50:30.593Z,7.67
2019-04-21T22:53:04.897Z,7.23
2019-04-21T22:55:35.274Z,8.47
2019-04-21T22:58:09.611Z,8.70
2019-04-21T23:00:46.020Z,7.70
2019-04-21T23:03:20.657Z,7.47
2019-04-21T23:05:50.077Z,8.17
2019-04-21T23:08:26.449Z,7.13
2019-04-21T23:10:59.143Z,7.60
2019-04-21T23:13:28.579Z,6.47
2019-04-21T23:16:01.399Z,6.53
2019-04-21T23:18:48.015Z,5.93
2019-04-21T23:21:17.484Z,6.10
2019-04-21T23:23:59.398Z,6.63
2019-04-21T23:26:26.684Z,6.40
2019-04-21T23:28:58.557Z,5.93
2019-04-21T23:31:37.222Z,6.33
2019-04-21T23:33:44.183Z,6.70
2019-04-21T23:36:20.559Z,6.80
2019-04-21T23:38:50.126Z,5.70
2019-04-21T23:41:21.492Z,6.17
2019-04-21T23:43:59.187Z,6.37
2019-04-21T23:46:28.153Z,5.87
2019-04-21T23:49:12.606Z,5.73
2019-04-21T23:51:39.585Z,5.77
2019-04-21T23:54:01.813Z,5.20
2019-04-21T23:56:37.246Z,6.03
2019-04-21T23:59:07.473Z,5.60
